x

West Moresby (46208) Wave Buoy

10:00am - Tue 5th May 2015 All times are PDT. -7 hours from GMT.

  • Sig Wave height 4.9ft
  • Peak Period 10s
  • Wind
    9mph, 13mph gusts
  • Sea Temp 49°f
  • Air Temp 49°f
  • Sea Pressure 1016.9mb
  • West Moresby
  • West Moresby

More Historic Weather Station data

Upgrade to MSW Pro to gain access to the past 30 days of data for over 8000 Wavebouys and Weather Stations around the globe.

Join Pro

Comparision Forecast

View Surf forecast
   
Tue 05/05 10:00am 5ft 10s 9 13 mph 1016.9mb 49f 49f
9:00am 5ft 21s 11 13 mph 1016.5mb 49f 49f
8:00am 5ft 10s 9 11 mph 1015.9mb 49f 49f
7:00am 5.5ft 11s 7 9 mph 1015mb 49f 49f
6:00am 5.5ft 11s 4 7 mph 1014.5mb 49f 49f
5:00am 6ft 11s 7 9 mph 1014mb 49f 49f
4:00am 7ft 10s 2
mph
1013.4mb 49f 48f
3:00am 6ft 11s 2 4 mph 1012.9mb 49f 48f
2:00am 6ft 11s 4
mph
1012.4mb 49f 48f
1:00am 6.5ft 9s 2 4 mph 1011.8mb 49f 49f
12:00am 6ft 10s 7 9 mph 1011.4mb 49f 49f
Mon 05/04 11:00pm 6ft 12s 9 11 mph 1011mb 49f 49f
10:00pm 5.5ft 11s 11 13 mph 1010.3mb 49f 49f
9:00pm 6.5ft 10s 11 13 mph 1009.5mb 49f 49f
8:00pm 7ft 11s 13 16 mph 1009mb 49f 49f
7:00pm 6.5ft 12s 13 18 mph 1008.4mb 49f 49f
6:00pm 7ft 10s 9 11 mph 1008mb 49f 48f
5:00pm 8ft 12s 9 11 mph 1007.5mb 50f 48f
4:00pm 8ft 11s 2 4 mph 1007.1mb 49f 48f
3:00pm 7.5ft 12s 4 7 mph 1006.8mb 49f 48f
2:00pm 8ft 12s 7 9 mph 1006.3mb 49f 48f
1:00pm 8ft 12s 11 13 mph 1006mb 49f 47f
12:00pm 8.5ft 12s 9 13 mph 1005.6mb 49f 48f
11:00am 9ft 12s 9 13 mph 1005.2mb 49f 47f
10:00am 9ft 12s 13 18 mph 1005.2mb 49f 46f
9:00am 9.5ft 13s 16 22 mph 1005mb 49f 46f
8:00am 9ft 13s 16 20 mph 1005.3mb 49f 46f
7:00am 9.5ft 12s 16 20 mph 1005.5mb 49f 46f
6:00am 10ft 12s 13 18 mph 1005.5mb 49f 47f
5:00am 10ft 14s 11 18 mph 1005.3mb 49f 47f
4:00am 10ft 14s 9 11 mph 1006.1mb 49f 47f
3:00am 9.5ft 14s 7 9 mph 1006.1mb 49f 46f
2:00am 9ft 14s 9 18 mph 1006.4mb 49f 47f
1:00am 8.5ft 14s 25 29 mph 1006.5mb 49f 48f
12:00am 7ft 15s 25 31 mph 1006.9mb 49f 48f
Sun 05/03 11:00pm 7ft 15s 25 29 mph 1007.7mb 49f 48f
10:00pm 6ft 16s 25 29 mph 1008.3mb 49f 47f
9:00pm 6ft 5s 25 29 mph 1008.8mb 49f 48f
8:00pm 6ft 6s 25 29 mph 1009.5mb 49f 48f
7:00pm 6ft 7s 22 27 mph 1010.3mb 49f 47f
6:00pm 5.5ft 5s 22 27 mph 1011mb 49f 47f
5:00pm 5ft 5s 22 27 mph 1011.8mb 49f 47f
4:00pm 4.5ft 5s 22 25 mph 1012.8mb 49f 46f
3:00pm 4.5ft 4s 20 25 mph 1013.5mb 49f 47f
2:00pm 3.5ft 4s 20 22 mph 1014.2mb 49f 47f
1:00pm 3.5ft 10s 18 22 mph 1014.7mb 49f 47f
12:00pm 3.5ft 8s 16 20 mph 1015.3mb 49f 47f
11:00am 3.5ft 10s 13 18 mph 1015.7mb 50f 47f
10:00am 4ft 8s 11 13 mph 1016mb 50f 46f
9:00am 3.5ft 8s 13 16 mph 1016.2mb 50f 47f
8:00am 4.5ft 9s 11 13 mph 1016.8mb 50f 47f
7:00am 4.5ft 9s 9 11 mph 1017mb 50f 47f
6:00am 5ft 9s 9 11 mph 1017.4mb 50f 47f
5:00am 4.5ft 8s 7 9 mph 1018mb 50f 47f
4:00am 5ft 10s 4 7 mph 1018.5mb 50f 47f
3:00am 5ft 10s 4 7 mph 1019mb 50f 46f
2:00am 5.5ft 9s 4
mph
1019.7mb 50f 46f
1:00am 5ft 8s 2 4 mph 1020mb 50f 46f
12:00am 6ft 10s 2
mph
1020.5mb 50f 47f
Sat 05/02 11:00pm 6ft 10s  -  2 mph 1021mb 50f 47f
10:00pm 6ft 9s 2 4 mph 1021.4mb 50f 47f
9:00pm 6ft 10s 4 7 mph 1021.5mb 50f 47f
8:00pm 6.5ft 10s 4 7 mph 1021.8mb 51f 47f
7:00pm 6.5ft 10s 4 7 mph 1022mb 51f 48f
6:00pm 7ft 10s 4 7 mph 1022.6mb 51f 48f
5:00pm 7.5ft 9s 7 9 mph 1023.1mb 51f 48f
4:00pm 7ft 11s 7 9 mph 1023.5mb 51f 47f
3:00pm 8ft 11s 4 9 mph 1023.7mb 51f 47f
2:00pm 7.5ft 10s 2 4 mph 1023.7mb 50f 47f
1:00pm 8ft 11s 4 7 mph 1023.8mb 50f 47f
12:00pm 8ft 10s 7 9 mph 1023.8mb 49f 47f
11:00am 7.5ft 10s 4 9 mph 1023.7mb 49f 47f
10:00am 9ft 11s 7 11 mph 1023.5mb 49f 47f
9:00am 8ft 11s 7 9 mph 1023.4mb 49f 47f
8:00am 9ft 11s 9 11 mph 1023.2mb 49f 46f
7:00am 9ft 11s 13 18 mph 1023mb 49f 46f
6:00am 9ft 11s 9 13 mph 1023mb 49f 47f
5:00am 10ft 11s 13 18 mph 1022.8mb 49f 46f
4:00am 10ft 10s 9 11 mph 1022.8mb 49f 46f
3:00am 11ft 12s 13 16 mph 1022.7mb 49f 47f
2:00am 10ft 12s 9 13 mph 1022.6mb 49f 46f
1:00am 11ft 11s 13 18 mph 1022.4mb 49f 46f
12:00am 11.5ft 11s 13 18 mph 1022.3mb 49f 47f
Fri 05/01 11:00pm 11ft 10s 13 18 mph 1022.3mb 49f 47f
10:00pm 12ft 10s 16 20 mph 1022mb 49f 47f
9:00pm 11.5ft 11s 16 18 mph 1021.5mb 49f 47f
8:00pm 12.5ft 11s 13 18 mph 1021.3mb 49f 47f
7:00pm 12ft 11s 16 22 mph 1021.1mb 49f 47f